Mahshahr Airport

OIAM · Khuzestan, Irán

METAR pasados OIAM · Mahshahr Airport

A continuación puedes ver los METAR de los últimos días. Selecciona un año para ver los METAR más antiguos, desde el año 2007 en adelante.

21 de abril de 2024

Hora Código Tiempo Temp. Visibilidad Cielo nuboso Viento METAR/SPECI
02:30
V
24 °C 8 km - 120° 120° 6 kt METAR OIAM 202300Z 12006KT 8000 NSC 24/20 Q1006
01:30
V
25 °C 8 km - 130° 130° 10 kt METAR OIAM 202200Z 13010KT 8000 NSC 25/20 Q1006
00:30
V
24 °C 8 km - 140° 140° 6 kt METAR OIAM 202100Z 14006KT 8000 NSC 24/20 Q1006

20 de abril de 2024

Hora Código Tiempo Temp. Visibilidad Cielo nuboso Viento METAR/SPECI
23:30
V
26 °C 10 km+ - 110° 110° 6 kt METAR OIAM 202000Z 11006KT CAVOK 26/19 Q1006
22:30
V
27 °C 10 km+ - 150° 150° 4 kt METAR OIAM 201900Z 15004KT CAVOK 27/20 Q1006
21:30
V
27 °C 10 km+ - 190° 190° 4 kt METAR OIAM 201800Z 19004KT CAVOK 27/20 Q1006
20:30
V
28 °C 10 km+ - 210° 210° 6 kt METAR OIAM 201700Z 21006KT CAVOK 28/21 Q1005
19:30
V
29 °C 10 km+ - 220° 220° 4 kt METAR OIAM 201600Z 22004KT CAVOK 29/19 Q1005
18:30
V
31 °C 10 km+ - 190° 190° 10 kt METAR OIAM 201500Z 19010KT CAVOK 31/19 Q1005
18:00
V
31 °C 10 km+ - 190° 190° 8 kt METAR OIAM 201430Z 19008KT CAVOK 31/19 Q1005
17:30
V
32 °C 10 km+ - 180° 180° 8 kt METAR OIAM 201400Z 18008KT CAVOK 32/18 Q1005
16:30
V
33 °C 10 km+ - 210° 210° 14 kt METAR OIAM 201300Z 21014KT CAVOK 33/18 Q1006
16:00
V
33 °C 10 km+ - 210° 210° 12 kt METAR OIAM 201230Z 21012KT CAVOK 33/19 Q1006
15:30
V
33 °C 10 km+ - 210° 210° 10 kt METAR OIAM 201200Z 21010KT CAVOK 33/19 Q1006
14:30
V
34 °C 10 km+ - 210° 210° 10 kt METAR OIAM 201100Z 21010KT CAVOK 34/19 Q1007
13:30
V
34 °C 10 km+ - 200° 200° 8 kt METAR OIAM 201000Z 20008KT CAVOK 34/18 Q1007
12:30
V
33 °C 10 km+ - 150° 150° 4 kt METAR OIAM 200900Z 15004KT CAVOK 33/17 Q1008
11:30
V
33 °C 10 km+ - 360° 360° 0 kt METAR OIAM 200800Z 00000KT CAVOK 33/17 Q1008
10:30
V
32 °C 10 km+ - 180° 180° 4 kt METAR OIAM 200700Z 18004KT CAVOK 32/18 Q1008
09:30
V
30 °C 10 km+ - 120° 120° 4 kt METAR OIAM 200600Z 12004KT CAVOK 30/18 Q1008
08:30
M
27 °C 7 km - 170° 170° 4 kt METAR OIAM 200500Z 17004KT 7000 NSC 27/20 Q1008
07:30
M
25 °C 6 km - 360° 360° 0 kt METAR OIAM 200400Z 00000KT 6000 FEW040 25/20 Q1007
06:30
M
24 °C 5 km - 150° 150° 4 kt METAR OIAM 200300Z 15004KT 5000 HZ FEW040 24/19 Q1006
05:30
V
23 °C 10 km+ - 360° 360° 0 kt METAR OIAM 200200Z 00000KT CAVOK 23/19 Q1006
04:30
V
23 °C 10 km+ - 130° 130° 4 kt METAR OIAM 200100Z 13004KT CAVOK 23/20 Q1000 A2954
03:30
V
23 °C 10 km+ - 110° 110° 6 kt METAR OIAM 200000Z 11006KT CAVOK 23/19 Q1006
02:30
V
23 °C 10 km+ - 110° 110° 6 kt METAR OIAM 192300Z 11006KT CAVOK 23/19 Q1006
01:30
V
26 °C 10 km+ - 120° 120° 6 kt METAR OIAM 192200Z 12006KT CAVOK 26/20 Q1006
00:30
V
26 °C 10 km+ - 360° 360° 0 kt METAR OIAM 192100Z 00000KT CAVOK 26/21 Q1006

19 de abril de 2024

Hora Código Tiempo Temp. Visibilidad Cielo nuboso Viento METAR/SPECI
23:30
V
27 °C 10 km+ - 360° 360° 0 kt METAR OIAM 192000Z 00000KT CAVOK 27/21 Q1006
22:30
V
28 °C 10 km+ - 240° 240° 4 kt METAR OIAM 191900Z 24004KT CAVOK 28/19 Q1006
21:30
V
27 °C 10 km+ - 220° 220° 4 kt METAR OIAM 191800Z 22004KT CAVOK 27/21 Q1006
20:30
V
27 °C 10 km+ - 200° 200° 4 kt METAR OIAM 191700Z 20004KT CAVOK 27/21 Q1005
19:30
V
29 °C 10 km+ - 210° 210° 6 kt METAR OIAM 191600Z 21006KT CAVOK 29/21 Q1005
19:00
V
29 °C 10 km+ - 210° 210° 8 kt METAR OIAM 191530Z 21008KT CAVOK 29/21 Q1005
18:30
V
31 °C 10 km+ - 180° 180° 6 kt METAR OIAM 191500Z 18006KT CAVOK 31/21 Q1005
18:00
V
31 °C 10 km+ - 200° 200° 10 kt METAR OIAM 191430Z 20010KT CAVOK 31/22 Q1005
17:30
V
32 °C 10 km+ - 210° 210° 12 kt METAR OIAM 191400Z 21012KT CAVOK 32/21 Q1005
17:00
V
32 °C 10 km+ - 200° 200° 12 kt METAR OIAM 191330Z 20012KT CAVOK 32/20 Q1005
16:30
V
34 °C 10 km+ - 200° 200° 6 kt METAR OIAM 191300Z 20006KT CAVOK 34/19 Q1005
15:30
V
34 °C 10 km+ - 230° 230° 8 kt METAR OIAM 191200Z 23008KT CAVOK 34/19 Q1006
15:00
V
34 °C 10 km+ - 210° 210° 8 kt METAR OIAM 191130Z 21008KT CAVOK 34/18 Q1007
14:30
V
34 °C 10 km+ - 240° 240° 6 kt METAR OIAM 191100Z 24006KT CAVOK 34/18 Q1007
14:00
V
33 °C 10 km+ - 210° 210° 4 kt METAR OIAM 191030Z 21004KT CAVOK 33/19 Q1007
13:30
V
33 °C 10 km+ - 170° 170° 4 kt METAR OIAM 191000Z 17004KT CAVOK 33/19 Q1007
13:00
V
32 °C 10 km+ - 360° 360° 0 kt METAR OIAM 190930Z 00000KT CAVOK 32/18 Q1008
12:30
V
32 °C 10 km+ - 210° 210° 4 kt METAR OIAM 190900Z 21004KT CAVOK 32/18 Q1008
11:30
V
31 °C 10 km+ - 230° 230° 4 kt METAR OIAM 190800Z 23004KT CAVOK 31/17 Q1008
10:30
V
30 °C 10 km+ - 360° 360° 0 kt METAR OIAM 190700Z 00000KT CAVOK 30/19 Q1009
09:30
V
29 °C 10 km+ - 200° 200° 4 kt METAR OIAM 190600Z 20004KT CAVOK 29/19 Q1009
08:30
V
27 °C 10 km+ - 180° 180° 4 kt METAR OIAM 190500Z 18004KT CAVOK 27/20 Q1009
07:30
M
26 °C 7 km - 360° 360° 0 kt METAR OIAM 190400Z 00000KT 7000 NSC 26/21 Q1008
06:30
V
23 °C 10 km+ - 150° 150° 6 kt METAR OIAM 190300Z 15006KT CAVOK 23/18 Q1008
05:30
V
23 °C 10 km+ - 360° 360° 0 kt METAR OIAM 190200Z 00000KT CAVOK 23/17 Q1007
04:30
V
23 °C 10 km+ - 360° 360° 0 kt METAR OIAM 190100Z 00000KT CAVOK 23/16 Q1007
03:30
V
23 °C 10 km+ - 360° 360° 0 kt METAR OIAM 190000Z 00000KT CAVOK 23/18 Q1007
02:30
V
25 °C 10 km+ - 360° 360° 0 kt METAR OIAM 182300Z 00000KT CAVOK 25/17 Q1007
01:30
V
25 °C 10 km+ - 360° 360° 0 kt METAR OIAM 182200Z 00000KT CAVOK 25/19 Q1008
00:30
V
26 °C 10 km+ - 260° 260° 8 kt METAR OIAM 182100Z 26008KT CAVOK 26/18 Q1008

18 de abril de 2024

Hora Código Tiempo Temp. Visibilidad Cielo nuboso Viento METAR/SPECI
23:30
V
27 °C 10 km+ - 360° 360° 0 kt METAR OIAM 182000Z 00000KT CAVOK 27/18 Q1008
22:30
V
27 °C 10 km+ - 360° 360° 0 kt METAR OIAM 181900Z 00000KT CAVOK 27/19 Q1008
21:30
V
28 °C 10 km+ - 210° 210° 4 kt METAR OIAM 181800Z 21004KT CAVOK 28/20 Q1008
20:30
V
29 °C 10 km+ - 210° 210° 8 kt METAR OIAM 181700Z 21008KT CAVOK 29/18 Q1008
19:30
V
29 °C 10 km+ - 220° 220° 10 kt METAR OIAM 181600Z 22010KT CAVOK 29/18 Q1007
18:30
V
31 °C 10 km+ - 210° 210° 10 kt METAR OIAM 181500Z 21010KT CAVOK 31/19 Q1007
17:30
V
32 °C 10 km+ - 210° 210° 10 kt METAR OIAM 181400Z 21010KT 9999 FEW040 32/17 Q1007
16:30
V
33 °C 10 km+ - 220° 220° 14 kt METAR OIAM 181300Z 22014KT 9999 FEW040 33/18 Q1007
15:30
V
34 °C 10 km+ - 190° 190° 8 kt METAR OIAM 181200Z 19008KT 9999 FEW040 34/17 Q1008
14:30
V
33 °C 10 km+ - 210° 210° 8 kt METAR OIAM 181100Z 21008KT CAVOK 33/18 Q1008
13:30
V
32 °C 10 km+ - 260° 260° 8 kt METAR OIAM 181000Z 26008KT CAVOK 32/18 Q1009
13:00
V
31 °C 10 km+ - 240° 240° 4 kt METAR OIAM 180930Z 24004KT CAVOK 31/19 Q1010
12:30
V
30 °C 10 km+ - 240° 240° 4 kt METAR OIAM 180900Z 24004KT CAVOK 30/19 Q1010
12:00
V
30 °C 10 km+ - 190° 190° 6 kt METAR OIAM 180830Z 19006KT CAVOK 30/18 Q1010
11:30
V
30 °C 10 km+ - 190° 190° 6 kt METAR OIAM 180800Z 19006KT CAVOK 30/19 Q1010
11:00
V
30 °C 10 km+ - 210° 210° 4 kt METAR OIAM 180730Z 21004KT CAVOK 30/19 Q1010
10:30
V
30 °C 10 km+ - 360° 360° 0 kt METAR OIAM 180700Z 00000KT CAVOK 30/19 Q1010
09:30
V
27 °C 10 km+ - 360° 360° 0 kt METAR OIAM 180600Z 00000KT CAVOK 27/19 Q1010
Cambiar esta información